North Ocean City, Maryland
Current Conditions -  °F | °C
As of 6:53 AM on Wednesday 28 Jan 2015 (Local Time) from KOXB Reporting Station
Clear Clear  
Wind Chill:   Ceiling: Unl
Heat Index: 22°   Visibility: 10mi
Dew Point:   Wind: 15mph
Humidity: 55%   Direction: 330°NNW
Pressure: 30.07"   Gusts: 23mph
Location:  38.3984°N, 75.0667°W
Report Text: KOXB 281153Z AUTO 33013G20KT 10SM CLR M06/M13 A3007 RMK AO2 SLP182 T10561133 11022 21056 53028 TSNO
Loading
Personal Weather Stations






























Interactive Weather Map New forecast layout! Learn more

10-Day Weather Forecast

Advertisements
Track Severe Weather on mobile